sensor_id;sensor_type;location;lat;lon;timestamp;P1;durP1;ratioP1;P2;durP2;ratioP2
72569;SDS011;60594;50.204;8.844;2022-11-20T00:00:15;8.20;;;4.15;;
72569;SDS011;60594;50.204;8.844;2022-11-20T00:03:02;9.45;;;4.93;;
72569;SDS011;60594;50.204;8.844;2022-11-20T00:05:31;10.85;;;4.60;;
72569;SDS011;60594;50.204;8.844;2022-11-20T00:07:58;10.18;;;4.20;;
72569;SDS011;60594;50.204;8.844;2022-11-20T00:10:24;8.32;;;3.90;;
72569;SDS011;60594;50.204;8.844;2022-11-20T00:12:51;9.77;;;3.67;;
72569;SDS011;60594;50.204;8.844;2022-11-20T00:15:17;9.00;;;3.95;;
72569;SDS011;60594;50.204;8.844;2022-11-20T00:17:44;7.93;;;4.35;;
72569;SDS011;60594;50.204;8.844;2022-11-20T00:20:11;11.13;;;4.82;;
72569;SDS011;60594;50.204;8.844;2022-11-20T00:22:37;11.15;;;6.07;;
72569;SDS011;60594;50.204;8.844;2022-11-20T00:25:04;8.88;;;4.47;;
72569;SDS011;60594;50.204;8.844;2022-11-20T00:27:30;9.52;;;4.65;;
72569;SDS011;60594;50.204;8.844;2022-11-20T00:29:57;12.30;;;5.18;;
72569;SDS011;60594;50.204;8.844;2022-11-20T00:32:23;9.63;;;4.97;;
72569;SDS011;60594;50.204;8.844;2022-11-20T00:34:50;11.45;;;5.78;;
72569;SDS011;60594;50.204;8.844;2022-11-20T00:37:16;9.48;;;5.35;;
72569;SDS011;60594;50.204;8.844;2022-11-20T00:39:42;9.70;;;4.43;;
72569;SDS011;60594;50.204;8.844;2022-11-20T00:42:09;10.35;;;6.32;;
72569;SDS011;60594;50.204;8.844;2022-11-20T00:44:35;10.55;;;5.47;;
72569;SDS011;60594;50.204;8.844;2022-11-20T00:47:02;9.48;;;4.88;;
72569;SDS011;60594;50.204;8.844;2022-11-20T00:49:28;9.35;;;5.40;;
72569;SDS011;60594;50.204;8.844;2022-11-20T00:51:55;8.57;;;4.63;;
72569;SDS011;60594;50.204;8.844;2022-11-20T00:54:21;11.20;;;4.88;;
72569;SDS011;60594;50.204;8.844;2022-11-20T00:56:48;12.95;;;5.90;;
72569;SDS011;60594;50.204;8.844;2022-11-20T00:59:14;11.82;;;6.07;;
72569;SDS011;60594;50.204;8.844;2022-11-20T01:01:40;8.68;;;5.10;;
72569;SDS011;60594;50.204;8.844;2022-11-20T01:04:08;7.47;;;4.30;;
72569;SDS011;60594;50.204;8.844;2022-11-20T01:06:35;9.45;;;5.22;;
72569;SDS011;60594;50.204;8.844;2022-11-20T01:09:08;7.88;;;4.07;;
72569;SDS011;60594;50.204;8.844;2022-11-20T01:11:38;9.82;;;5.75;;
72569;SDS011;60594;50.204;8.844;2022-11-20T01:14:07;9.10;;;5.28;;
72569;SDS011;60594;50.204;8.844;2022-11-20T01:16:37;11.93;;;5.22;;
72569;SDS011;60594;50.204;8.844;2022-11-20T01:19:09;9.90;;;4.63;;
72569;SDS011;60594;50.204;8.844;2022-11-20T01:21:41;12.88;;;5.72;;
72569;SDS011;60594;50.204;8.844;2022-11-20T01:24:13;8.45;;;4.13;;
72569;SDS011;60594;50.204;8.844;2022-11-20T01:26:42;9.18;;;4.70;;
72569;SDS011;60594;50.204;8.844;2022-11-20T01:29:12;7.68;;;3.85;;
72569;SDS011;60594;50.204;8.844;2022-11-20T01:31:43;11.07;;;6.20;;
72569;SDS011;60594;50.204;8.844;2022-11-20T01:34:11;9.95;;;4.97;;
72569;SDS011;60594;50.204;8.844;2022-11-20T01:36:40;9.05;;;5.47;;
72569;SDS011;60594;50.204;8.844;2022-11-20T01:39:10;10.63;;;5.32;;
72569;SDS011;60594;50.204;8.844;2022-11-20T01:41:38;10.13;;;4.97;;
72569;SDS011;60594;50.204;8.844;2022-11-20T01:47:12;10.27;;;4.63;;
72569;SDS011;60594;50.204;8.844;2022-11-20T01:49:46;9.40;;;5.20;;
72569;SDS011;60594;50.204;8.844;2022-11-20T01:52:20;9.63;;;4.53;;
72569;SDS011;60594;50.204;8.844;2022-11-20T01:54:59;9.07;;;4.05;;
72569;SDS011;60594;50.204;8.844;2022-11-20T01:57:31;10.15;;;4.70;;
72569;SDS011;60594;50.204;8.844;2022-11-20T02:00:00;11.20;;;4.53;;
72569;SDS011;60594;50.204;8.844;2022-11-20T02:02:39;8.80;;;4.55;;
72569;SDS011;60594;50.204;8.844;2022-11-20T02:05:14;9.68;;;4.72;;
72569;SDS011;60594;50.204;8.844;2022-11-20T02:07:47;9.07;;;5.65;;
72569;SDS011;60594;50.204;8.844;2022-11-20T02:10:14;6.95;;;3.40;;
72569;SDS011;60594;50.204;8.844;2022-11-20T02:12:41;10.68;;;4.40;;
72569;SDS011;60594;50.204;8.844;2022-11-20T02:15:26;10.63;;;4.82;;
72569;SDS011;60594;50.204;8.844;2022-11-20T02:17:52;8.07;;;4.00;;
72569;SDS011;60594;50.204;8.844;2022-11-20T02:20:19;7.63;;;3.58;;
72569;SDS011;60594;50.204;8.844;2022-11-20T02:23:20;9.98;;;4.97;;
72569;SDS011;60594;50.204;8.844;2022-11-20T02:25:43;10.52;;;5.28;;
72569;SDS011;60594;50.204;8.844;2022-11-20T02:28:11;11.95;;;5.47;;
72569;SDS011;60594;50.204;8.844;2022-11-20T02:30:38;10.82;;;5.47;;
72569;SDS011;60594;50.204;8.844;2022-11-20T02:33:04;8.98;;;4.43;;
72569;SDS011;60594;50.204;8.844;2022-11-20T02:37:59;9.30;;;4.43;;
72569;SDS011;60594;50.204;8.844;2022-11-20T02:40:28;8.80;;;4.38;;
72569;SDS011;60594;50.204;8.844;2022-11-20T02:42:55;11.38;;;4.88;;
72569;SDS011;60594;50.204;8.844;2022-11-20T02:45:24;11.85;;;5.38;;
72569;SDS011;60594;50.204;8.844;2022-11-20T02:47:51;10.63;;;4.65;;
72569;SDS011;60594;50.204;8.844;2022-11-20T02:50:18;11.43;;;4.60;;
72569;SDS011;60594;50.204;8.844;2022-11-20T02:52:44;7.80;;;4.22;;
72569;SDS011;60594;50.204;8.844;2022-11-20T02:55:11;8.98;;;3.97;;
72569;SDS011;60594;50.204;8.844;2022-11-20T02:57:37;9.27;;;4.45;;
72569;SDS011;60594;50.204;8.844;2022-11-20T03:00:05;10.32;;;5.60;;
72569;SDS011;60594;50.204;8.844;2022-11-20T03:02:32;11.02;;;5.20;;
72569;SDS011;60594;50.204;8.844;2022-11-20T03:04:59;10.60;;;4.65;;
72569;SDS011;60594;50.204;8.844;2022-11-20T03:07:25;12.88;;;5.65;;
72569;SDS011;60594;50.204;8.844;2022-11-20T03:09:52;11.45;;;5.10;;
72569;SDS011;60594;50.204;8.844;2022-11-20T03:12:18;8.98;;;4.57;;
72569;SDS011;60594;50.204;8.844;2022-11-20T03:14:45;9.93;;;5.32;;
72569;SDS011;60594;50.204;8.844;2022-11-20T03:17:11;11.68;;;4.38;;
72569;SDS011;60594;50.204;8.844;2022-11-20T03:19:37;9.52;;;5.25;;
72569;SDS011;60594;50.204;8.844;2022-11-20T03:22:04;10.30;;;4.63;;
72569;SDS011;60594;50.204;8.844;2022-11-20T03:24:30;11.05;;;5.05;;
72569;SDS011;60594;50.204;8.844;2022-11-20T03:26:56;11.18;;;4.55;;
72569;SDS011;60594;50.204;8.844;2022-11-20T03:29:23;8.05;;;4.63;;
72569;SDS011;60594;50.204;8.844;2022-11-20T03:31:49;8.85;;;4.53;;
72569;SDS011;60594;50.204;8.844;2022-11-20T03:34:15;12.48;;;5.35;;
72569;SDS011;60594;50.204;8.844;2022-11-20T03:36:42;10.32;;;4.68;;
72569;SDS011;60594;50.204;8.844;2022-11-20T03:39:09;7.15;;;4.05;;
72569;SDS011;60594;50.204;8.844;2022-11-20T03:41:37;9.77;;;5.68;;
72569;SDS011;60594;50.204;8.844;2022-11-20T03:44:05;8.50;;;4.20;;
72569;SDS011;60594;50.204;8.844;2022-11-20T03:46:34;11.68;;;4.57;;
72569;SDS011;60594;50.204;8.844;2022-11-20T03:49:01;12.23;;;5.43;;
72569;SDS011;60594;50.204;8.844;2022-11-20T03:51:28;8.77;;;4.78;;
72569;SDS011;60594;50.204;8.844;2022-11-20T03:53:57;8.77;;;4.75;;
72569;SDS011;60594;50.204;8.844;2022-11-20T03:56:28;9.20;;;4.60;;
72569;SDS011;60594;50.204;8.844;2022-11-20T03:58:57;9.88;;;5.50;;
72569;SDS011;60594;50.204;8.844;2022-11-20T04:01:25;9.02;;;3.95;;
72569;SDS011;60594;50.204;8.844;2022-11-20T04:03:53;9.48;;;4.55;;
72569;SDS011;60594;50.204;8.844;2022-11-20T04:06:25;8.77;;;5.28;;
72569;SDS011;60594;50.204;8.844;2022-11-20T04:08:54;10.43;;;4.00;;
72569;SDS011;60594;50.204;8.844;2022-11-20T04:11:22;8.95;;;4.35;;
72569;SDS011;60594;50.204;8.844;2022-11-20T04:13:55;9.25;;;5.38;;
72569;SDS011;60594;50.204;8.844;2022-11-20T04:16:23;7.95;;;4.07;;
72569;SDS011;60594;50.204;8.844;2022-11-20T04:18:58;7.97;;;4.13;;
72569;SDS011;60594;50.204;8.844;2022-11-20T04:21:26;7.40;;;3.88;;
72569;SDS011;60594;50.204;8.844;2022-11-20T04:23:53;8.98;;;4.78;;
72569;SDS011;60594;50.204;8.844;2022-11-20T04:26:21;10.93;;;4.78;;
72569;SDS011;60594;50.204;8.844;2022-11-20T04:28:49;11.20;;;4.15;;
72569;SDS011;60594;50.204;8.844;2022-11-20T04:31:16;9.30;;;5.53;;
72569;SDS011;60594;50.204;8.844;2022-11-20T04:33:47;11.07;;;4.40;;
72569;SDS011;60594;50.204;8.844;2022-11-20T04:36:14;6.88;;;4.60;;
72569;SDS011;60594;50.204;8.844;2022-11-20T04:38:45;7.38;;;3.83;;
72569;SDS011;60594;50.204;8.844;2022-11-20T04:41:15;9.60;;;5.43;;
72569;SDS011;60594;50.204;8.844;2022-11-20T04:43:46;10.93;;;5.60;;
72569;SDS011;60594;50.204;8.844;2022-11-20T04:46:16;9.65;;;5.50;;
72569;SDS011;60594;50.204;8.844;2022-11-20T04:48:44;8.68;;;4.10;;
72569;SDS011;60594;50.204;8.844;2022-11-20T04:51:11;11.85;;;6.18;;
72569;SDS011;60594;50.204;8.844;2022-11-20T04:53:38;12.43;;;5.18;;
72569;SDS011;60594;50.204;8.844;2022-11-20T04:56:05;11.98;;;4.65;;
72569;SDS011;60594;50.204;8.844;2022-11-20T04:58:33;10.23;;;5.47;;
72569;SDS011;60594;50.204;8.844;2022-11-20T05:03:37;11.13;;;5.38;;
72569;SDS011;60594;50.204;8.844;2022-11-20T05:06:04;9.45;;;5.18;;
72569;SDS011;60594;50.204;8.844;2022-11-20T05:08:32;10.15;;;4.95;;
72569;SDS011;60594;50.204;8.844;2022-11-20T05:11:02;11.70;;;5.10;;
72569;SDS011;60594;50.204;8.844;2022-11-20T05:13:31;9.13;;;4.45;;
72569;SDS011;60594;50.204;8.844;2022-11-20T05:16:04;9.57;;;5.03;;
72569;SDS011;60594;50.204;8.844;2022-11-20T05:18:36;8.93;;;5.05;;
72569;SDS011;60594;50.204;8.844;2022-11-20T05:21:04;10.07;;;4.47;;
72569;SDS011;60594;50.204;8.844;2022-11-20T05:23:31;10.48;;;4.45;;
72569;SDS011;60594;50.204;8.844;2022-11-20T05:25:58;10.85;;;6.35;;
72569;SDS011;60594;50.204;8.844;2022-11-20T05:28:26;11.32;;;5.00;;
72569;SDS011;60594;50.204;8.844;2022-11-20T05:30:54;12.27;;;6.10;;
72569;SDS011;60594;50.204;8.844;2022-11-20T05:33:21;10.82;;;4.60;;
72569;SDS011;60594;50.204;8.844;2022-11-20T05:35:47;7.07;;;4.47;;
72569;SDS011;60594;50.204;8.844;2022-11-20T05:38:14;14.43;;;5.38;;
72569;SDS011;60594;50.204;8.844;2022-11-20T05:40:41;9.27;;;4.72;;
72569;SDS011;60594;50.204;8.844;2022-11-20T05:43:07;11.48;;;5.47;;
72569;SDS011;60594;50.204;8.844;2022-11-20T05:45:34;10.40;;;5.00;;
72569;SDS011;60594;50.204;8.844;2022-11-20T05:48:00;9.00;;;4.32;;
72569;SDS011;60594;50.204;8.844;2022-11-20T05:50:27;11.38;;;4.93;;
72569;SDS011;60594;50.204;8.844;2022-11-20T05:52:54;8.18;;;4.63;;
72569;SDS011;60594;50.204;8.844;2022-11-20T05:55:20;8.90;;;5.05;;
72569;SDS011;60594;50.204;8.844;2022-11-20T05:57:47;11.07;;;6.47;;
72569;SDS011;60594;50.204;8.844;2022-11-20T06:00:13;8.82;;;4.10;;
72569;SDS011;60594;50.204;8.844;2022-11-20T06:02:40;12.50;;;6.20;;
72569;SDS011;60594;50.204;8.844;2022-11-20T06:05:06;11.00;;;4.72;;
72569;SDS011;60594;50.204;8.844;2022-11-20T06:07:33;13.05;;;5.90;;
72569;SDS011;60594;50.204;8.844;2022-11-20T06:09:59;10.95;;;5.10;;
72569;SDS011;60594;50.204;8.844;2022-11-20T06:12:26;13.85;;;5.32;;
72569;SDS011;60594;50.204;8.844;2022-11-20T06:14:52;13.20;;;5.43;;
72569;SDS011;60594;50.204;8.844;2022-11-20T06:17:19;7.57;;;4.18;;
72569;SDS011;60594;50.204;8.844;2022-11-20T06:19:45;12.38;;;6.43;;
72569;SDS011;60594;50.204;8.844;2022-11-20T06:22:11;10.00;;;5.72;;
72569;SDS011;60594;50.204;8.844;2022-11-20T06:24:38;9.52;;;4.72;;
72569;SDS011;60594;50.204;8.844;2022-11-20T06:27:04;12.32;;;6.55;;
72569;SDS011;60594;50.204;8.844;2022-11-20T06:29:30;9.32;;;5.35;;
72569;SDS011;60594;50.204;8.844;2022-11-20T06:31:57;11.05;;;5.85;;
72569;SDS011;60594;50.204;8.844;2022-11-20T06:34:23;14.75;;;7.45;;
72569;SDS011;60594;50.204;8.844;2022-11-20T06:36:49;11.77;;;4.68;;
72569;SDS011;60594;50.204;8.844;2022-11-20T06:39:16;10.57;;;5.53;;
72569;SDS011;60594;50.204;8.844;2022-11-20T06:41:42;11.65;;;5.68;;
72569;SDS011;60594;50.204;8.844;2022-11-20T06:44:08;10.15;;;5.43;;
72569;SDS011;60594;50.204;8.844;2022-11-20T06:46:35;10.90;;;4.85;;
72569;SDS011;60594;50.204;8.844;2022-11-20T06:49:01;10.07;;;5.72;;
72569;SDS011;60594;50.204;8.844;2022-11-20T06:51:28;11.88;;;5.97;;
72569;SDS011;60594;50.204;8.844;2022-11-20T06:53:54;10.32;;;5.90;;
72569;SDS011;60594;50.204;8.844;2022-11-20T06:56:21;12.02;;;6.47;;
72569;SDS011;60594;50.204;8.844;2022-11-20T06:58:47;10.32;;;5.03;;
72569;SDS011;60594;50.204;8.844;2022-11-20T07:01:14;11.60;;;5.82;;
72569;SDS011;60594;50.204;8.844;2022-11-20T07:03:41;12.38;;;5.25;;
72569;SDS011;60594;50.204;8.844;2022-11-20T07:06:08;12.32;;;5.35;;
72569;SDS011;60594;50.204;8.844;2022-11-20T07:08:35;12.60;;;7.18;;
72569;SDS011;60594;50.204;8.844;2022-11-20T07:11:03;12.80;;;6.22;;
72569;SDS011;60594;50.204;8.844;2022-11-20T07:13:32;16.92;;;7.13;;
72569;SDS011;60594;50.204;8.844;2022-11-20T07:16:02;15.25;;;6.43;;
72569;SDS011;60594;50.204;8.844;2022-11-20T07:18:31;14.15;;;8.15;;
72569;SDS011;60594;50.204;8.844;2022-11-20T07:21:04;10.88;;;5.28;;
72569;SDS011;60594;50.204;8.844;2022-11-20T07:23:33;14.95;;;6.65;;
72569;SDS011;60594;50.204;8.844;2022-11-20T07:26:06;15.75;;;7.95;;
72569;SDS011;60594;50.204;8.844;2022-11-20T07:28:33;14.38;;;5.80;;
72569;SDS011;60594;50.204;8.844;2022-11-20T07:31:01;13.18;;;6.78;;
72569;SDS011;60594;50.204;8.844;2022-11-20T07:33:28;15.18;;;7.82;;
72569;SDS011;60594;50.204;8.844;2022-11-20T07:35:54;14.27;;;6.93;;
72569;SDS011;60594;50.204;8.844;2022-11-20T07:38:20;18.42;;;7.13;;
72569;SDS011;60594;50.204;8.844;2022-11-20T07:40:47;13.30;;;5.60;;
72569;SDS011;60594;50.204;8.844;2022-11-20T07:43:13;14.80;;;6.55;;
72569;SDS011;60594;50.204;8.844;2022-11-20T07:45:40;19.23;;;7.90;;
72569;SDS011;60594;50.204;8.844;2022-11-20T07:48:06;15.65;;;6.80;;
72569;SDS011;60594;50.204;8.844;2022-11-20T07:50:32;18.38;;;6.85;;
72569;SDS011;60594;50.204;8.844;2022-11-20T07:53:02;17.45;;;8.32;;
72569;SDS011;60594;50.204;8.844;2022-11-20T07:55:30;13.70;;;7.25;;
72569;SDS011;60594;50.204;8.844;2022-11-20T07:57:57;19.35;;;8.25;;
72569;SDS011;60594;50.204;8.844;2022-11-20T08:00:25;18.08;;;6.78;;
72569;SDS011;60594;50.204;8.844;2022-11-20T08:02:52;18.73;;;7.22;;
72569;SDS011;60594;50.204;8.844;2022-11-20T08:05:18;15.85;;;6.72;;
72569;SDS011;60594;50.204;8.844;2022-11-20T08:07:44;17.67;;;6.60;;
72569;SDS011;60594;50.204;8.844;2022-11-20T08:10:12;15.27;;;6.88;;
72569;SDS011;60594;50.204;8.844;2022-11-20T08:12:46;11.88;;;5.47;;
72569;SDS011;60594;50.204;8.844;2022-11-20T08:15:32;13.55;;;6.15;;
72569;SDS011;60594;50.204;8.844;2022-11-20T08:18:02;16.13;;;6.53;;
72569;SDS011;60594;50.204;8.844;2022-11-20T08:20:30;17.30;;;7.82;;
72569;SDS011;60594;50.204;8.844;2022-11-20T08:22:58;14.20;;;6.80;;
72569;SDS011;60594;50.204;8.844;2022-11-20T08:25:26;15.60;;;7.68;;
72569;SDS011;60594;50.204;8.844;2022-11-20T08:27:56;11.85;;;6.90;;
72569;SDS011;60594;50.204;8.844;2022-11-20T08:30:24;12.07;;;5.47;;
72569;SDS011;60594;50.204;8.844;2022-11-20T08:32:51;13.88;;;6.40;;
72569;SDS011;60594;50.204;8.844;2022-11-20T08:35:17;11.95;;;6.32;;
72569;SDS011;60594;50.204;8.844;2022-11-20T08:37:47;18.23;;;7.30;;
72569;SDS011;60594;50.204;8.844;2022-11-20T08:40:14;15.13;;;7.72;;
72569;SDS011;60594;50.204;8.844;2022-11-20T08:42:50;17.23;;;8.07;;
72569;SDS011;60594;50.204;8.844;2022-11-20T08:45:18;14.57;;;6.07;;
72569;SDS011;60594;50.204;8.844;2022-11-20T08:47:44;15.02;;;8.05;;
72569;SDS011;60594;50.204;8.844;2022-11-20T08:50:13;15.90;;;6.10;;
72569;SDS011;60594;50.204;8.844;2022-11-20T08:52:40;17.05;;;7.50;;
72569;SDS011;60594;50.204;8.844;2022-11-20T08:55:07;16.10;;;6.95;;
72569;SDS011;60594;50.204;8.844;2022-11-20T08:57:35;14.80;;;5.65;;
72569;SDS011;60594;50.204;8.844;2022-11-20T09:00:03;15.60;;;6.20;;
72569;SDS011;60594;50.204;8.844;2022-11-20T09:02:31;12.35;;;5.90;;
72569;SDS011;60594;50.204;8.844;2022-11-20T09:04:58;12.38;;;5.68;;
72569;SDS011;60594;50.204;8.844;2022-11-20T09:07:24;12.82;;;5.93;;
72569;SDS011;60594;50.204;8.844;2022-11-20T09:09:51;11.88;;;5.63;;
72569;SDS011;60594;50.204;8.844;2022-11-20T09:12:17;17.67;;;6.85;;
72569;SDS011;60594;50.204;8.844;2022-11-20T09:14:43;12.15;;;5.80;;
72569;SDS011;60594;50.204;8.844;2022-11-20T09:17:10;15.65;;;6.53;;
72569;SDS011;60594;50.204;8.844;2022-11-20T09:19:39;16.13;;;6.90;;
72569;SDS011;60594;50.204;8.844;2022-11-20T09:22:06;14.38;;;7.30;;
72569;SDS011;60594;50.204;8.844;2022-11-20T09:24:33;14.05;;;7.10;;
72569;SDS011;60594;50.204;8.844;2022-11-20T09:27:01;16.00;;;7.30;;
72569;SDS011;60594;50.204;8.844;2022-11-20T09:29:29;17.60;;;7.93;;
72569;SDS011;60594;50.204;8.844;2022-11-20T09:31:56;13.75;;;6.22;;
72569;SDS011;60594;50.204;8.844;2022-11-20T09:34:23;13.48;;;6.45;;
72569;SDS011;60594;50.204;8.844;2022-11-20T09:36:49;18.58;;;6.65;;
72569;SDS011;60594;50.204;8.844;2022-11-20T09:39:16;17.10;;;8.10;;
72569;SDS011;60594;50.204;8.844;2022-11-20T09:47:29;10.55;;;6.55;;
72569;SDS011;60594;50.204;8.844;2022-11-20T09:56:04;14.18;;;7.38;;
72569;SDS011;60594;50.204;8.844;2022-11-20T10:01:09;16.00;;;6.72;;
72569;SDS011;60594;50.204;8.844;2022-11-20T10:06:21;20.48;;;8.50;;
72569;SDS011;60594;50.204;8.844;2022-11-20T10:09:01;14.85;;;6.60;;
72569;SDS011;60594;50.204;8.844;2022-11-20T10:14:41;23.42;;;6.63;;
72569;SDS011;60594;50.204;8.844;2022-11-20T10:17:27;16.17;;;6.28;;
72569;SDS011;60594;50.204;8.844;2022-11-20T10:28:59;14.23;;;7.30;;
72569;SDS011;60594;50.204;8.844;2022-11-20T10:31:35;11.90;;;6.53;;
72569;SDS011;60594;50.204;8.844;2022-11-20T10:34:11;17.05;;;7.03;;
72569;SDS011;60594;50.204;8.844;2022-11-20T10:36:40;12.60;;;6.18;;
72569;SDS011;60594;50.204;8.844;2022-11-20T10:39:21;17.10;;;7.47;;
72569;SDS011;60594;50.204;8.844;2022-11-20T10:41:56;15.02;;;7.07;;
72569;SDS011;60594;50.204;8.844;2022-11-20T10:44:27;16.77;;;8.00;;
72569;SDS011;60594;50.204;8.844;2022-11-20T10:47:17;16.27;;;6.47;;
72569;SDS011;60594;50.204;8.844;2022-11-20T10:49:46;15.82;;;6.68;;
72569;SDS011;60594;50.204;8.844;2022-11-20T10:55:26;14.70;;;6.93;;
72569;SDS011;60594;50.204;8.844;2022-11-20T10:58:14;15.88;;;6.93;;
72569;SDS011;60594;50.204;8.844;2022-11-20T11:00:48;16.88;;;7.10;;
72569;SDS011;60594;50.204;8.844;2022-11-20T11:06:01;14.55;;;7.45;;
72569;SDS011;60594;50.204;8.844;2022-11-20T11:08:34;15.05;;;6.35;;
72569;SDS011;60594;50.204;8.844;2022-11-20T11:11:17;14.65;;;6.97;;
72569;SDS011;60594;50.204;8.844;2022-11-20T11:13:48;14.93;;;6.43;;
72569;SDS011;60594;50.204;8.844;2022-11-20T11:16:19;14.20;;;5.93;;
72569;SDS011;60594;50.204;8.844;2022-11-20T11:18:51;16.15;;;7.88;;
72569;SDS011;60594;50.204;8.844;2022-11-20T11:21:29;17.17;;;7.60;;
72569;SDS011;60594;50.204;8.844;2022-11-20T11:23:59;12.80;;;6.47;;
72569;SDS011;60594;50.204;8.844;2022-11-20T11:26:27;19.40;;;8.30;;
72569;SDS011;60594;50.204;8.844;2022-11-20T11:28:59;16.50;;;8.23;;
72569;SDS011;60594;50.204;8.844;2022-11-20T11:31:28;16.20;;;7.05;;
72569;SDS011;60594;50.204;8.844;2022-11-20T11:36:40;16.10;;;6.47;;
72569;SDS011;60594;50.204;8.844;2022-11-20T11:39:17;12.93;;;5.63;;
72569;SDS011;60594;50.204;8.844;2022-11-20T11:41:46;15.23;;;6.72;;
72569;SDS011;60594;50.204;8.844;2022-11-20T11:44:20;15.35;;;7.05;;
72569;SDS011;60594;50.204;8.844;2022-11-20T11:47:11;14.02;;;6.32;;
72569;SDS011;60594;50.204;8.844;2022-11-20T11:49:47;13.55;;;6.07;;
72569;SDS011;60594;50.204;8.844;2022-11-20T11:52:18;13.63;;;6.20;;
72569;SDS011;60594;50.204;8.844;2022-11-20T11:54:55;16.17;;;6.97;;
72569;SDS011;60594;50.204;8.844;2022-11-20T11:57:28;16.08;;;6.32;;
72569;SDS011;60594;50.204;8.844;2022-11-20T12:00:15;16.67;;;7.28;;
72569;SDS011;60594;50.204;8.844;2022-11-20T12:15:59;17.85;;;7.40;;
72569;SDS011;60594;50.204;8.844;2022-11-20T12:18:28;20.23;;;8.57;;
72569;SDS011;60594;50.204;8.844;2022-11-20T12:44:07;17.83;;;8.55;;
72569;SDS011;60594;50.204;8.844;2022-11-20T12:47:07;19.83;;;9.65;;
72569;SDS011;60594;50.204;8.844;2022-11-20T13:00:22;16.05;;;7.45;;
72569;SDS011;60594;50.204;8.844;2022-11-20T13:08:42;17.63;;;7.32;;
72569;SDS011;60594;50.204;8.844;2022-11-20T13:17:24;18.58;;;8.98;;
72569;SDS011;60594;50.204;8.844;2022-11-20T13:19:55;20.23;;;8.68;;
72569;SDS011;60594;50.204;8.844;2022-11-20T13:22:25;20.63;;;8.32;;
72569;SDS011;60594;50.204;8.844;2022-11-20T13:24:53;19.77;;;7.28;;
72569;SDS011;60594;50.204;8.844;2022-11-20T13:27:22;17.58;;;7.45;;
72569;SDS011;60594;50.204;8.844;2022-11-20T13:30:00;21.95;;;10.57;;
72569;SDS011;60594;50.204;8.844;2022-11-20T13:32:27;19.35;;;10.65;;
72569;SDS011;60594;50.204;8.844;2022-11-20T13:35:03;21.98;;;9.35;;
72569;SDS011;60594;50.204;8.844;2022-11-20T13:37:34;18.10;;;7.82;;
72569;SDS011;60594;50.204;8.844;2022-11-20T13:45:11;35.03;;;18.27;;
72569;SDS011;60594;50.204;8.844;2022-11-20T13:47:51;23.42;;;11.40;;
72569;SDS011;60594;50.204;8.844;2022-11-20T13:50:19;26.80;;;13.20;;
72569;SDS011;60594;50.204;8.844;2022-11-20T14:02:10;18.65;;;9.50;;
72569;SDS011;60594;50.204;8.844;2022-11-20T14:04:42;23.38;;;9.43;;
72569;SDS011;60594;50.204;8.844;2022-11-20T14:07:11;16.60;;;9.07;;
72569;SDS011;60594;50.204;8.844;2022-11-20T14:09:38;21.08;;;9.80;;
72569;SDS011;60594;50.204;8.844;2022-11-20T14:12:13;20.25;;;10.13;;
72569;SDS011;60594;50.204;8.844;2022-11-20T14:14:50;23.25;;;8.73;;
72569;SDS011;60594;50.204;8.844;2022-11-20T14:19:47;19.80;;;10.20;;
72569;SDS011;60594;50.204;8.844;2022-11-20T14:22:18;20.55;;;8.60;;
72569;SDS011;60594;50.204;8.844;2022-11-20T14:27:32;16.73;;;7.97;;
72569;SDS011;60594;50.204;8.844;2022-11-20T14:30:01;24.98;;;11.40;;
72569;SDS011;60594;50.204;8.844;2022-11-20T14:32:29;27.48;;;16.40;;
72569;SDS011;60594;50.204;8.844;2022-11-20T14:34:59;33.97;;;15.82;;
72569;SDS011;60594;50.204;8.844;2022-11-20T14:37:36;24.58;;;12.02;;
72569;SDS011;60594;50.204;8.844;2022-11-20T14:42:56;20.85;;;9.75;;
72569;SDS011;60594;50.204;8.844;2022-11-20T14:45:25;25.58;;;10.07;;
72569;SDS011;60594;50.204;8.844;2022-11-20T14:47:53;16.25;;;8.13;;
72569;SDS011;60594;50.204;8.844;2022-11-20T14:50:29;19.88;;;10.07;;
72569;SDS011;60594;50.204;8.844;2022-11-20T14:52:57;18.17;;;10.35;;
72569;SDS011;60594;50.204;8.844;2022-11-20T14:58:22;16.55;;;8.75;;
72569;SDS011;60594;50.204;8.844;2022-11-20T15:03:37;18.58;;;10.48;;
72569;SDS011;60594;50.204;8.844;2022-11-20T15:06:06;25.48;;;11.85;;
72569;SDS011;60594;50.204;8.844;2022-11-20T15:08:34;28.95;;;13.27;;
72569;SDS011;60594;50.204;8.844;2022-11-20T15:11:01;20.23;;;10.20;;
72569;SDS011;60594;50.204;8.844;2022-11-20T15:13:32;17.63;;;9.93;;
72569;SDS011;60594;50.204;8.844;2022-11-20T15:16:03;19.50;;;11.02;;
72569;SDS011;60594;50.204;8.844;2022-11-20T15:18:44;16.80;;;8.63;;
72569;SDS011;60594;50.204;8.844;2022-11-20T15:21:12;18.25;;;8.00;;
72569;SDS011;60594;50.204;8.844;2022-11-20T15:23:45;21.33;;;7.85;;
72569;SDS011;60594;50.204;8.844;2022-11-20T15:26:12;17.83;;;7.97;;
72569;SDS011;60594;50.204;8.844;2022-11-20T15:28:41;21.88;;;8.93;;
72569;SDS011;60594;50.204;8.844;2022-11-20T15:31:11;16.83;;;7.13;;
72569;SDS011;60594;50.204;8.844;2022-11-20T15:33:38;21.55;;;8.48;;
72569;SDS011;60594;50.204;8.844;2022-11-20T15:36:04;14.20;;;7.70;;
72569;SDS011;60594;50.204;8.844;2022-11-20T15:38:31;19.05;;;8.23;;
72569;SDS011;60594;50.204;8.844;2022-11-20T15:40:57;20.25;;;9.10;;
72569;SDS011;60594;50.204;8.844;2022-11-20T15:43:24;23.25;;;8.15;;
72569;SDS011;60594;50.204;8.844;2022-11-20T15:45:51;18.05;;;8.55;;
72569;SDS011;60594;50.204;8.844;2022-11-20T15:48:21;19.35;;;9.05;;
72569;SDS011;60594;50.204;8.844;2022-11-20T15:50:58;19.73;;;9.20;;
72569;SDS011;60594;50.204;8.844;2022-11-20T15:53:29;20.30;;;9.32;;
72569;SDS011;60594;50.204;8.844;2022-11-20T15:55:56;19.88;;;8.75;;
72569;SDS011;60594;50.204;8.844;2022-11-20T15:58:22;18.73;;;9.85;;
72569;SDS011;60594;50.204;8.844;2022-11-20T16:00:50;19.65;;;9.52;;
72569;SDS011;60594;50.204;8.844;2022-11-20T16:03:17;18.80;;;8.18;;
72569;SDS011;60594;50.204;8.844;2022-11-20T16:05:44;16.27;;;7.45;;
72569;SDS011;60594;50.204;8.844;2022-11-20T16:08:11;18.67;;;9.43;;
72569;SDS011;60594;50.204;8.844;2022-11-20T16:10:38;12.48;;;7.15;;
72569;SDS011;60594;50.204;8.844;2022-11-20T16:13:16;17.15;;;7.88;;
72569;SDS011;60594;50.204;8.844;2022-11-20T16:16:06;13.73;;;7.35;;
72569;SDS011;60594;50.204;8.844;2022-11-20T16:18:38;15.98;;;8.90;;
72569;SDS011;60594;50.204;8.844;2022-11-20T16:21:04;15.18;;;8.10;;
72569;SDS011;60594;50.204;8.844;2022-11-20T16:23:32;17.85;;;8.77;;
72569;SDS011;60594;50.204;8.844;2022-11-20T16:25:59;14.15;;;8.55;;
72569;SDS011;60594;50.204;8.844;2022-11-20T16:28:25;16.92;;;8.02;;
72569;SDS011;60594;50.204;8.844;2022-11-20T16:30:52;17.67;;;8.95;;
72569;SDS011;60594;50.204;8.844;2022-11-20T16:33:18;16.00;;;9.05;;
72569;SDS011;60594;50.204;8.844;2022-11-20T16:35:47;16.48;;;8.73;;
72569;SDS011;60594;50.204;8.844;2022-11-20T16:38:14;17.27;;;8.52;;
72569;SDS011;60594;50.204;8.844;2022-11-20T16:40:40;18.88;;;8.65;;
72569;SDS011;60594;50.204;8.844;2022-11-20T16:43:09;15.68;;;8.38;;
72569;SDS011;60594;50.204;8.844;2022-11-20T16:45:40;18.70;;;9.50;;
72569;SDS011;60594;50.204;8.844;2022-11-20T16:48:13;18.15;;;7.65;;
72569;SDS011;60594;50.204;8.844;2022-11-20T16:50:48;19.77;;;9.73;;
72569;SDS011;60594;50.204;8.844;2022-11-20T16:55:43;11.98;;;7.18;;
72569;SDS011;60594;50.204;8.844;2022-11-20T16:58:10;15.35;;;6.78;;
72569;SDS011;60594;50.204;8.844;2022-11-20T17:00:38;13.73;;;7.13;;
72569;SDS011;60594;50.204;8.844;2022-11-20T17:03:05;17.25;;;7.63;;